Time,TemperatureF,DewpointF,PressureIn,WindDirection,WindDirectionDegrees,WindSpeedMPH,WindSpeedGustMPH,Humidity,HourlyPrecipIn,Conditions,Clouds,dailyrainin,SoftwareType,DateUTC
2013-06-20 00:07:00,64.9,63.7,29.93,SE,135,0.0,-999.0,96,-99.99,,,0.00,Acu-Link.com,2013-06-20 04:07:00,
2013-06-20 00:22:00,65.1,64.5,29.93,NNW,337,0.0,-999.0,98,-99.99,,,0.00,Acu-Link.com,2013-06-20 04:22:00,
2013-06-20 00:38:00,64.6,63.7,29.93,NNW,337,0.0,-999.0,97,-99.99,,,0.00,Acu-Link.com,2013-06-20 04:38:00,
2013-06-20 00:53:00,64.2,63.6,29.93,WNW,292,0.0,-999.0,98,-99.99,,,0.00,Acu-Link.com,2013-06-20 04:53:00,
2013-06-20 01:08:00,63.9,63.6,29.92,North,0,0.0,-999.0,99,-99.99,,,0.00,Acu-Link.com,2013-06-20 05:08:00,
2013-06-20 01:23:00,63.3,63.0,29.93,West,270,0.0,-999.0,99,-99.99,,,0.00,Acu-Link.com,2013-06-20 05:23:00,
2013-06-20 01:38:00,63.0,62.7,29.93,NE,45,0.0,-999.0,99,-99.99,,,0.00,Acu-Link.com,2013-06-20 05:38:00,
2013-06-20 01:53:00,62.6,62.3,29.93,WNW,292,0.0,-999.0,99,-99.99,,,0.00,Acu-Link.com,2013-06-20 05:53:00,
2013-06-20 02:08:00,62.1,61.8,29.93,West,270,0.0,-999.0,99,-99.99,,,0.00,Acu-Link.com,2013-06-20 06:08:00,
2013-06-20 02:23:00,61.7,61.4,29.92,WNW,292,0.0,-999.0,99,-99.99,,,0.00,Acu-Link.com,2013-06-20 06:23:00,
2013-06-20 02:38:00,61.9,61.6,29.93,NE,45,0.0,-999.0,99,-99.99,,,0.00,Acu-Link.com,2013-06-20 06:38:00,
2013-06-20 02:54:00,61.2,60.9,29.93,NW,315,0.0,-999.0,99,-99.99,,,0.00,Acu-Link.com,2013-06-20 06:54:00,
2013-06-20 03:09:00,61.0,60.7,29.93,NW,315,0.0,-999.0,99,-99.99,,,0.00,Acu-Link.com,2013-06-20 07:09:00,
2013-06-20 03:24:00,60.8,60.5,29.94,NW,315,0.0,-999.0,99,-99.99,,,0.00,Acu-Link.com,2013-06-20 07:24:00,
2013-06-20 03:39:00,60.6,60.3,29.94,NW,315,0.0,-999.0,99,-99.99,,,0.00,Acu-Link.com,2013-06-20 07:39:00,
2013-06-20 03:54:00,60.8,60.5,29.95,WNW,292,0.0,-999.0,99,-99.99,,,0.00,Acu-Link.com,2013-06-20 07:54:00,
2013-06-20 04:10:00,61.0,60.7,29.94,WNW,292,0.0,-999.0,99,-99.99,,,0.00,Acu-Link.com,2013-06-20 08:10:00,
2013-06-20 04:25:00,61.0,60.7,29.94,WNW,292,0.0,-999.0,99,-99.99,,,0.00,Acu-Link.com,2013-06-20 08:25:00,
2013-06-20 04:40:00,61.3,61.0,29.95,WNW,292,0.0,-999.0,99,-99.99,,,0.00,Acu-Link.com,2013-06-20 08:40:00,
2013-06-20 04:55:00,61.2,60.9,29.96,WNW,292,0.0,-999.0,99,-99.99,,,0.00,Acu-Link.com,2013-06-20 08:55:00,
2013-06-20 05:10:00,61.2,60.9,29.96,WSW,247,0.0,-999.0,99,-99.99,,,0.00,Acu-Link.com,2013-06-20 09:10:00,
2013-06-20 05:26:00,61.0,60.7,29.96,SSW,202,0.0,-999.0,99,-99.99,,,0.00,Acu-Link.com,2013-06-20 09:26:00,
2013-06-20 05:41:00,60.8,60.5,29.96,West,270,0.0,-999.0,99,-99.99,,,0.00,Acu-Link.com,2013-06-20 09:41:00,
2013-06-20 05:56:00,60.8,60.5,29.97,WNW,292,0.0,-999.0,99,-99.99,,,0.00,Acu-Link.com,2013-06-20 09:56:00,
2013-06-20 06:11:00,60.6,60.3,29.98,West,270,0.0,-999.0,99,-99.99,,,0.00,Acu-Link.com,2013-06-20 10:11:00,
2013-06-20 06:26:00,60.6,60.3,29.98,West,270,0.0,-999.0,99,-99.99,,,0.00,Acu-Link.com,2013-06-20 10:26:00,
2013-06-20 06:41:00,60.8,60.5,29.99,West,270,0.0,-999.0,99,-99.99,,,0.00,Acu-Link.com,2013-06-20 10:41:00,
2013-06-20 06:56:00,60.8,60.5,30.00,SW,225,0.0,-999.0,99,-99.99,,,0.00,Acu-Link.com,2013-06-20 10:56:00,
2013-06-20 07:11:00,61.2,60.9,29.99,West,270,0.0,-999.0,99,-99.99,,,0.00,Acu-Link.com,2013-06-20 11:11:00,
2013-06-20 07:26:00,61.7,61.4,29.99,SSE,157,0.0,-999.0,99,-99.99,,,0.00,Acu-Link.com,2013-06-20 11:26:00,
2013-06-20 07:42:00,62.4,62.1,30.00,SSW,202,0.0,-999.0,99,-99.99,,,0.00,Acu-Link.com,2013-06-20 11:42:00,
2013-06-20 07:57:00,63.1,62.5,30.01,SW,225,0.0,-999.0,98,-99.99,,,0.00,Acu-Link.com,2013-06-20 11:57:00,
2013-06-20 08:12:00,64.8,63.6,30.01,ESE,112,1.7,-999.0,96,-99.99,,,0.00,Acu-Link.com,2013-06-20 12:12:00,
2013-06-20 08:27:00,65.7,63.6,30.01,West,270,2.2,-999.0,93,-99.99,,,0.00,Acu-Link.com,2013-06-20 12:27:00,
2013-06-20 08:42:00,66.7,64.0,30.03,WNW,292,1.1,-999.0,91,-99.99,,,0.00,Acu-Link.com,2013-06-20 12:42:00,
2013-06-20 08:57:00,68.5,64.5,30.02,South,180,0.0,-999.0,87,-99.99,,,0.00,Acu-Link.com,2013-06-20 12:57:00,
2013-06-20 09:12:00,69.6,65.2,30.03,ESE,112,1.1,-999.0,86,-99.99,,,0.00,Acu-Link.com,2013-06-20 13:12:00,
2013-06-20 09:27:00,71.4,65.3,30.03,West,270,1.1,-999.0,81,-99.99,,,0.00,Acu-Link.com,2013-06-20 13:27:00,
2013-06-20 09:42:00,74.3,65.8,30.03,ESE,112,1.1,-999.0,75,-99.99,,,0.00,Acu-Link.com,2013-06-20 13:42:00,
2013-06-20 09:58:00,73.9,65.8,30.03,West,270,2.7,-999.0,76,-99.99,,,0.00,Acu-Link.com,2013-06-20 13:58:00,
2013-06-20 10:13:00,74.7,66.2,30.03,SSE,157,2.7,-999.0,75,-99.99,,,0.00,Acu-Link.com,2013-06-20 14:13:00,
2013-06-20 10:28:00,76.8,66.3,30.02,SSE,157,1.7,-999.0,70,-99.99,,,0.00,Acu-Link.com,2013-06-20 14:28:00,
2013-06-20 10:43:00,79.9,66.2,30.02,SE,135,3.7,-999.0,63,-99.99,,,0.00,Acu-Link.com,2013-06-20 14:43:00,
2013-06-20 10:58:00,77.5,66.5,30.02,ESE,112,2.7,-999.0,69,-99.99,,,0.00,Acu-Link.com,2013-06-20 14:58:00,
2013-06-20 11:13:00,78.1,66.2,30.03,SE,135,2.2,-999.0,67,-99.99,,,0.00,Acu-Link.com,2013-06-20 15:13:00,
2013-06-20 11:28:00,76.8,64.6,30.04,ENE,67,2.2,-999.0,66,-99.99,,,0.00,Acu-Link.com,2013-06-20 15:28:00,
2013-06-20 11:43:00,77.7,64.1,30.03,South,180,4.2,-999.0,63,-99.99,,,0.00,Acu-Link.com,2013-06-20 15:43:00,
2013-06-20 11:58:00,80.6,64.9,30.02,SSE,157,2.7,-999.0,59,-99.99,,,0.00,Acu-Link.com,2013-06-20 15:58:00,
2013-06-20 12:14:00,83.7,65.3,30.03,SSE,157,3.2,-999.0,54,-99.99,,,0.00,Acu-Link.com,2013-06-20 16:14:00,
2013-06-20 12:29:00,88.2,64.8,30.03,WNW,292,1.7,-999.0,46,-99.99,,,0.00,Acu-Link.com,2013-06-20 16:29:00,
2013-06-20 12:44:00,84.6,64.4,30.03,West,270,3.2,-999.0,51,-99.99,,,0.00,Acu-Link.com,2013-06-20 16:44:00,
2013-06-20 12:59:00,81.0,63.8,30.03,West,270,4.7,-999.0,56,-99.99,,,0.00,Acu-Link.com,2013-06-20 16:59:00,
2013-06-20 13:14:00,84.0,63.3,30.02,ESE,112,3.2,-999.0,50,-99.99,,,0.00,Acu-Link.com,2013-06-20 17:14:00,
2013-06-20 13:29:00,81.0,64.3,30.03,ESE,112,3.7,-999.0,57,-99.99,,,0.00,Acu-Link.com,2013-06-20 17:29:00,
2013-06-20 13:44:00,82.8,64.4,30.01,NNE,22,4.2,-999.0,54,-99.99,,,0.00,Acu-Link.com,2013-06-20 17:44:00,
2013-06-20 13:59:00,84.9,65.8,30.01,SW,225,5.3,-999.0,53,-99.99,,,0.00,Acu-Link.com,2013-06-20 17:59:00,
2013-06-20 14:14:00,82.8,63.9,30.01,East,90,3.2,-999.0,53,-99.99,,,0.00,Acu-Link.com,2013-06-20 18:14:00,
2013-06-20 14:30:00,81.0,63.8,30.01,NE,45,4.7,-999.0,56,-99.99,,,0.00,Acu-Link.com,2013-06-20 18:30:00,
2013-06-20 14:45:00,81.3,63.6,30.00,ESE,112,4.7,-999.0,55,-99.99,,,0.00,Acu-Link.com,2013-06-20 18:45:00,
2013-06-20 15:00:00,78.1,62.6,30.00,SE,135,2.7,-999.0,59,-99.99,,,0.00,Acu-Link.com,2013-06-20 19:00:00,
2013-06-20 15:15:00,80.6,63.4,30.00,West,270,4.2,-999.0,56,-99.99,,,0.00,Acu-Link.com,2013-06-20 19:15:00,
2013-06-20 15:30:00,80.4,63.2,29.99,SE,135,3.7,-999.0,56,-99.99,,,0.00,Acu-Link.com,2013-06-20 19:30:00,
2013-06-20 15:45:00,82.9,63.4,29.98,ESE,112,5.8,-999.0,52,-99.99,,,0.00,Acu-Link.com,2013-06-20 19:45:00,
2013-06-20 16:00:00,82.9,64.0,29.98,SSE,157,3.7,-999.0,53,-99.99,,,0.00,Acu-Link.com,2013-06-20 20:00:00,
2013-06-20 16:15:00,81.3,63.0,29.98,ESE,112,6.3,-999.0,54,-99.99,,,0.00,Acu-Link.com,2013-06-20 20:15:00,
2013-06-20 16:30:00,82.6,63.2,29.97,SE,135,6.3,-999.0,52,-99.99,,,0.00,Acu-Link.com,2013-06-20 20:30:00,
2013-06-20 16:46:00,81.9,63.6,29.98,ESE,112,4.2,-999.0,54,-99.99,,,0.00,Acu-Link.com,2013-06-20 20:46:00,
2013-06-20 17:01:00,81.1,63.4,29.96,SSE,157,4.2,-999.0,55,-99.99,,,0.00,Acu-Link.com,2013-06-20 21:01:00,
2013-06-20 17:16:00,79.2,62.6,29.98,ESE,112,6.8,-999.0,57,-99.99,,,0.00,Acu-Link.com,2013-06-20 21:16:00,
2013-06-20 17:31:00,79.5,61.9,29.99,SSE,157,6.8,-999.0,55,-99.99,,,0.00,Acu-Link.com,2013-06-20 21:31:00,
2013-06-20 17:46:00,78.3,62.8,29.98,SSE,157,2.2,-999.0,59,-99.99,,,0.00,Acu-Link.com,2013-06-20 21:46:00,
2013-06-20 18:01:00,80.6,63.9,29.96,ESE,112,5.3,-999.0,57,-99.99,,,0.00,Acu-Link.com,2013-06-20 22:01:00,
2013-06-20 18:16:00,80.4,63.7,29.97,ENE,67,2.7,-999.0,57,-99.99,,,0.00,Acu-Link.com,2013-06-20 22:16:00,
2013-06-20 18:31:00,80.1,62.5,29.97,ESE,112,3.2,-999.0,55,-99.99,,,0.00,Acu-Link.com,2013-06-20 22:31:00,
2013-06-20 18:46:00,78.8,63.2,29.97,WSW,247,3.7,-999.0,59,-99.99,,,0.00,Acu-Link.com,2013-06-20 22:46:00,
2013-06-20 19:02:00,78.1,61.1,29.97,SE,135,4.2,-999.0,56,-99.99,,,0.00,Acu-Link.com,2013-06-20 23:02:00,
2013-06-20 19:17:00,77.5,62.5,29.98,SE,135,4.2,-999.0,60,-99.99,,,0.00,Acu-Link.com,2013-06-20 23:17:00,
2013-06-20 19:32:00,76.6,63.0,29.98,ESE,112,2.2,-999.0,63,-99.99,,,0.00,Acu-Link.com,2013-06-20 23:32:00,
2013-06-20 19:47:00,76.5,63.4,29.98,SE,135,2.2,-999.0,64,-99.99,,,0.00,Acu-Link.com,2013-06-20 23:47:00,
2013-06-20 20:02:00,75.7,63.5,29.97,ESE,112,2.7,-999.0,66,-99.99,,,0.00,Acu-Link.com,2013-06-21 00:02:00,
2013-06-20 20:17:00,73.8,63.4,29.99,ESE,112,4.2,-999.0,70,-99.99,,,0.00,Acu-Link.com,2013-06-21 00:17:00,
2013-06-20 20:32:00,73.0,62.6,29.98,ESE,112,2.7,-999.0,70,-99.99,,,0.00,Acu-Link.com,2013-06-21 00:32:00,
2013-06-20 20:47:00,72.3,62.8,29.98,ESE,112,2.7,-999.0,72,-99.99,,,0.00,Acu-Link.com,2013-06-21 00:47:00,
2013-06-20 21:03:00,70.5,63.3,30.00,WNW,292,1.7,-999.0,78,-99.99,,,0.00,Acu-Link.com,2013-06-21 01:03:00,
2013-06-20 21:18:00,69.4,63.3,30.00,NNW,337,0.0,-999.0,81,-99.99,,,0.00,Acu-Link.com,2013-06-21 01:18:00,
2013-06-20 21:33:00,68.7,64.0,30.00,NE,45,0.0,-999.0,85,-99.99,,,0.00,Acu-Link.com,2013-06-21 01:33:00,
2013-06-20 21:48:00,68.2,64.2,30.00,NE,45,0.0,-999.0,87,-99.99,,,0.00,Acu-Link.com,2013-06-21 01:48:00,
2013-06-20 22:03:00,68.0,64.3,30.00,ESE,112,1.7,-999.0,88,-99.99,,,0.00,Acu-Link.com,2013-06-21 02:03:00,
2013-06-20 22:18:00,67.6,64.2,30.01,SW,225,0.0,-999.0,89,-99.99,,,0.00,Acu-Link.com,2013-06-21 02:18:00,
2013-06-20 22:33:00,66.7,64.0,30.02,NW,315,0.0,-999.0,91,-99.99,,,0.00,Acu-Link.com,2013-06-21 02:33:00,
2013-06-20 22:48:00,66.2,64.1,30.02,NNE,22,0.0,-999.0,93,-99.99,,,0.00,Acu-Link.com,2013-06-21 02:48:00,
2013-06-20 23:04:00,65.7,63.9,30.04,NNE,22,0.0,-999.0,94,-99.99,,,0.00,Acu-Link.com,2013-06-21 03:04:00,
2013-06-20 23:19:00,65.5,64.0,30.03,ENE,67,0.0,-999.0,95,-99.99,,,0.00,Acu-Link.com,2013-06-21 03:19:00,
2013-06-20 23:34:00,64.9,63.7,30.03,East,90,0.0,-999.0,96,-99.99,,,0.00,Acu-Link.com,2013-06-21 03:34:00,
2013-06-20 23:49:00,64.8,63.9,30.03,WNW,292,1.7,-999.0,97,-99.99,,,0.00,Acu-Link.com,2013-06-21 03:49:00,